sensor_id;sensor_type;location;lat;lon;timestamp;temperature;humidity
24436;DHT22;12616;52.470;13.436;2023-03-01T00:01:10;0.60;99.90
24436;DHT22;12616;52.470;13.436;2023-03-01T00:03:37;0.60;99.90
24436;DHT22;12616;52.470;13.436;2023-03-01T00:06:05;0.50;99.90
24436;DHT22;12616;52.470;13.436;2023-03-01T00:08:32;0.40;99.90
24436;DHT22;12616;52.470;13.436;2023-03-01T00:11:04;0.40;99.90
24436;DHT22;12616;52.470;13.436;2023-03-01T00:13:32;0.30;1.00
24436;DHT22;12616;52.470;13.436;2023-03-01T00:16:02;0.20;99.90
24436;DHT22;12616;52.470;13.436;2023-03-01T00:18:29;0.30;1.00
24436;DHT22;12616;52.470;13.436;2023-03-01T00:20:56;0.30;1.00
24436;DHT22;12616;52.470;13.436;2023-03-01T00:23:23;0.30;99.90
24436;DHT22;12616;52.470;13.436;2023-03-01T00:25:50;0.20;1.00
24436;DHT22;12616;52.470;13.436;2023-03-01T00:28:17;0.20;1.00
24436;DHT22;12616;52.470;13.436;2023-03-01T00:30:44;0.20;1.00
24436;DHT22;12616;52.470;13.436;2023-03-01T00:33:12;0.20;92.20
24436;DHT22;12616;52.470;13.436;2023-03-01T00:35:39;0.20;1.00
24436;DHT22;12616;52.470;13.436;2023-03-01T00:38:06;0.20;1.00
24436;DHT22;12616;52.470;13.436;2023-03-01T00:40:34;0.20;1.00
24436;DHT22;12616;52.470;13.436;2023-03-01T00:43:02;0.10;1.00
24436;DHT22;12616;52.470;13.436;2023-03-01T00:45:29;0.10;1.00
24436;DHT22;12616;52.470;13.436;2023-03-01T00:47:57;0.00;1.00
24436;DHT22;12616;52.470;13.436;2023-03-01T00:50:25;-0.10;99.90
24436;DHT22;12616;52.470;13.436;2023-03-01T00:52:53;0.00;1.00
24436;DHT22;12616;52.470;13.436;2023-03-01T00:55:20;-0.10;1.00
24436;DHT22;12616;52.470;13.436;2023-03-01T00:57:47;-0.10;1.00
24436;DHT22;12616;52.470;13.436;2023-03-01T01:00:14;-0.10;1.00
24436;DHT22;12616;52.470;13.436;2023-03-01T01:02:41;0.00;1.00
24436;DHT22;12616;52.470;13.436;2023-03-01T01:05:08;0.20;92.10
24436;DHT22;12616;52.470;13.436;2023-03-01T01:07:36;0.10;1.00
24436;DHT22;12616;52.470;13.436;2023-03-01T01:10:04;0.00;1.00
24436;DHT22;12616;52.470;13.436;2023-03-01T01:12:31;-0.10;1.00
24436;DHT22;12616;52.470;13.436;2023-03-01T01:14:59;-0.10;1.00
24436;DHT22;12616;52.470;13.436;2023-03-01T01:17:25;-0.10;34.70
24436;DHT22;12616;52.470;13.436;2023-03-01T01:19:52;-0.10;99.90
24436;DHT22;12616;52.470;13.436;2023-03-01T01:22:19;0.00;99.90
24436;DHT22;12616;52.470;13.436;2023-03-01T01:24:47;-0.10;1.00
24436;DHT22;12616;52.470;13.436;2023-03-01T01:27:14;-0.20;1.00
24436;DHT22;12616;52.470;13.436;2023-03-01T01:29:41;-0.10;1.00
24436;DHT22;12616;52.470;13.436;2023-03-01T01:32:08;-0.10;99.90
24436;DHT22;12616;52.470;13.436;2023-03-01T01:37:02;-0.10;99.90
24436;DHT22;12616;52.470;13.436;2023-03-01T01:39:29;-0.20;99.90
24436;DHT22;12616;52.470;13.436;2023-03-01T01:41:57;-0.30;99.90
24436;DHT22;12616;52.470;13.436;2023-03-01T01:44:26;-0.10;99.90
24436;DHT22;12616;52.470;13.436;2023-03-01T01:46:54;-1.00;99.90
24436;DHT22;12616;52.470;13.436;2023-03-01T01:49:27;-0.10;99.90
24436;DHT22;12616;52.470;13.436;2023-03-01T01:52:00;0.00;99.90
24436;DHT22;12616;52.470;13.436;2023-03-01T01:54:32;0.00;99.90
24436;DHT22;12616;52.470;13.436;2023-03-01T01:57:06;0.10;99.90
24436;DHT22;12616;52.470;13.436;2023-03-01T01:59:34;0.10;99.90
24436;DHT22;12616;52.470;13.436;2023-03-01T02:02:03;0.60;99.90
24436;DHT22;12616;52.470;13.436;2023-03-01T02:04:31;0.00;99.90
24436;DHT22;12616;52.470;13.436;2023-03-01T02:07:02;0.40;99.90
24436;DHT22;12616;52.470;13.436;2023-03-01T02:09:30;0.10;67.50
24436;DHT22;12616;52.470;13.436;2023-03-01T02:11:58;0.10;1.00
24436;DHT22;12616;52.470;13.436;2023-03-01T02:14:27;0.20;2.20
24436;DHT22;12616;52.470;13.436;2023-03-01T02:16:53;0.30;99.90
24436;DHT22;12616;52.470;13.436;2023-03-01T02:19:31;0.20;1.00
24436;DHT22;12616;52.470;13.436;2023-03-01T02:22:06;0.00;1.00
24436;DHT22;12616;52.470;13.436;2023-03-01T02:24:45;-0.10;99.90
24436;DHT22;12616;52.470;13.436;2023-03-01T02:27:18;0.00;99.90
24436;DHT22;12616;52.470;13.436;2023-03-01T02:29:48;-0.20;1.00
24436;DHT22;12616;52.470;13.436;2023-03-01T02:32:16;-0.30;1.00
24436;DHT22;12616;52.470;13.436;2023-03-01T02:34:51;-0.40;1.00
24436;DHT22;12616;52.470;13.436;2023-03-01T02:37:19;-0.40;1.00
24436;DHT22;12616;52.470;13.436;2023-03-01T02:39:55;-0.40;33.10
24436;DHT22;12616;52.470;13.436;2023-03-01T02:42:26;-0.40;99.90
24436;DHT22;12616;52.470;13.436;2023-03-01T02:44:56;-0.50;1.00
24436;DHT22;12616;52.470;13.436;2023-03-01T02:47:23;-0.60;99.90
24436;DHT22;12616;52.470;13.436;2023-03-01T02:49:50;-0.40;1.00
24436;DHT22;12616;52.470;13.436;2023-03-01T02:52:26;-0.50;99.90
24436;DHT22;12616;52.470;13.436;2023-03-01T02:54:59;-0.50;99.90
24436;DHT22;12616;52.470;13.436;2023-03-01T02:57:28;-0.40;1.00
24436;DHT22;12616;52.470;13.436;2023-03-01T02:59:59;-0.40;99.90
24436;DHT22;12616;52.470;13.436;2023-03-01T03:02:28;-0.70;99.90
24436;DHT22;12616;52.470;13.436;2023-03-01T03:05:04;-0.30;1.00
24436;DHT22;12616;52.470;13.436;2023-03-01T03:07:33;-0.40;99.90
24436;DHT22;12616;52.470;13.436;2023-03-01T03:10:00;-0.40;1.00
24436;DHT22;12616;52.470;13.436;2023-03-01T03:12:27;-0.40;99.90
24436;DHT22;12616;52.470;13.436;2023-03-01T03:14:55;-0.50;99.90
24436;DHT22;12616;52.470;13.436;2023-03-01T03:17:22;-0.60;99.90
24436;DHT22;12616;52.470;13.436;2023-03-01T03:19:49;-0.10;99.90
24436;DHT22;12616;52.470;13.436;2023-03-01T03:22:16;-0.80;99.90
24436;DHT22;12616;52.470;13.436;2023-03-01T03:24:43;-0.70;99.90
24436;DHT22;12616;52.470;13.436;2023-03-01T03:27:10;-0.60;99.90
24436;DHT22;12616;52.470;13.436;2023-03-01T03:29:36;-0.50;99.90
24436;DHT22;12616;52.470;13.436;2023-03-01T03:32:05;-0.70;99.90
24436;DHT22;12616;52.470;13.436;2023-03-01T03:34:32;-0.90;99.90
24436;DHT22;12616;52.470;13.436;2023-03-01T03:36:59;-1.00;1.00
24436;DHT22;12616;52.470;13.436;2023-03-01T03:39:27;-0.80;1.00
24436;DHT22;12616;52.470;13.436;2023-03-01T03:41:54;-0.60;1.00
24436;DHT22;12616;52.470;13.436;2023-03-01T03:44:21;-0.90;1.00
24436;DHT22;12616;52.470;13.436;2023-03-01T03:46:48;-0.90;99.90
24436;DHT22;12616;52.470;13.436;2023-03-01T03:49:16;-1.00;99.90
24436;DHT22;12616;52.470;13.436;2023-03-01T03:51:45;-0.60;1.00
24436;DHT22;12616;52.470;13.436;2023-03-01T03:54:12;-1.10;1.00
24436;DHT22;12616;52.470;13.436;2023-03-01T03:56:38;-0.80;1.00
24436;DHT22;12616;52.470;13.436;2023-03-01T03:59:05;-0.90;99.90
24436;DHT22;12616;52.470;13.436;2023-03-01T04:01:32;-0.50;99.90
24436;DHT22;12616;52.470;13.436;2023-03-01T04:03:59;-0.70;32.70
24436;DHT22;12616;52.470;13.436;2023-03-01T04:06:31;-0.70;1.00
24436;DHT22;12616;52.470;13.436;2023-03-01T04:08:57;-0.60;29.10
24436;DHT22;12616;52.470;13.436;2023-03-01T04:11:26;-0.70;98.50
24436;DHT22;12616;52.470;13.436;2023-03-01T04:13:54;-0.90;99.90
24436;DHT22;12616;52.470;13.436;2023-03-01T04:16:21;-1.00;1.00
24436;DHT22;12616;52.470;13.436;2023-03-01T04:18:49;-0.90;1.00
24436;DHT22;12616;52.470;13.436;2023-03-01T04:21:16;-0.80;1.00
24436;DHT22;12616;52.470;13.436;2023-03-01T04:23:44;-0.90;1.00
24436;DHT22;12616;52.470;13.436;2023-03-01T04:26:11;-0.90;99.90
24436;DHT22;12616;52.470;13.436;2023-03-01T04:28:39;-0.90;99.90
24436;DHT22;12616;52.470;13.436;2023-03-01T04:31:10;-0.90;99.90
24436;DHT22;12616;52.470;13.436;2023-03-01T04:33:43;1.50;99.90
24436;DHT22;12616;52.470;13.436;2023-03-01T04:36:11;-1.00;99.90
24436;DHT22;12616;52.470;13.436;2023-03-01T04:38:39;-0.90;1.00
24436;DHT22;12616;52.470;13.436;2023-03-01T04:41:09;-0.90;1.00
24436;DHT22;12616;52.470;13.436;2023-03-01T04:43:37;-1.00;99.90
24436;DHT22;12616;52.470;13.436;2023-03-01T04:46:05;-1.00;1.00
24436;DHT22;12616;52.470;13.436;2023-03-01T04:48:34;-1.20;99.90
24436;DHT22;12616;52.470;13.436;2023-03-01T04:51:01;-1.20;99.90
24436;DHT22;12616;52.470;13.436;2023-03-01T04:53:28;-1.20;1.00
24436;DHT22;12616;52.470;13.436;2023-03-01T04:55:56;-1.30;1.00
24436;DHT22;12616;52.470;13.436;2023-03-01T04:58:26;-1.40;99.90
24436;DHT22;12616;52.470;13.436;2023-03-01T05:00:54;-1.30;1.00
24436;DHT22;12616;52.470;13.436;2023-03-01T05:03:21;-1.30;1.00
24436;DHT22;12616;52.470;13.436;2023-03-01T05:05:50;-1.30;1.00
24436;DHT22;12616;52.470;13.436;2023-03-01T05:08:18;-1.40;1.00
24436;DHT22;12616;52.470;13.436;2023-03-01T05:10:48;-1.30;1.00
24436;DHT22;12616;52.470;13.436;2023-03-01T05:13:15;-1.20;25.10
24436;DHT22;12616;52.470;13.436;2023-03-01T05:15:48;-1.10;1.00
24436;DHT22;12616;52.470;13.436;2023-03-01T05:18:15;-1.10;1.00
24436;DHT22;12616;52.470;13.436;2023-03-01T05:20:42;-1.20;99.90
24436;DHT22;12616;52.470;13.436;2023-03-01T05:23:10;-1.20;1.00
24436;DHT22;12616;52.470;13.436;2023-03-01T05:25:37;-1.20;1.00
24436;DHT22;12616;52.470;13.436;2023-03-01T05:28:06;-1.10;1.00
24436;DHT22;12616;52.470;13.436;2023-03-01T05:30:35;-1.30;1.00
24436;DHT22;12616;52.470;13.436;2023-03-01T05:33:06;-1.30;16.20
24436;DHT22;12616;52.470;13.436;2023-03-01T05:35:39;-1.20;1.00
24436;DHT22;12616;52.470;13.436;2023-03-01T05:38:06;-1.40;1.00
24436;DHT22;12616;52.470;13.436;2023-03-01T05:40:34;-1.40;99.90
24436;DHT22;12616;52.470;13.436;2023-03-01T05:43:01;-1.30;1.00
24436;DHT22;12616;52.470;13.436;2023-03-01T05:45:31;-1.40;1.00
24436;DHT22;12616;52.470;13.436;2023-03-01T05:47:58;-1.30;99.90
24436;DHT22;12616;52.470;13.436;2023-03-01T05:50:28;-1.30;99.90
24436;DHT22;12616;52.470;13.436;2023-03-01T05:52:58;-1.20;1.00
24436;DHT22;12616;52.470;13.436;2023-03-01T05:55:25;-1.30;1.00
24436;DHT22;12616;52.470;13.436;2023-03-01T05:57:52;-1.20;99.90
24436;DHT22;12616;52.470;13.436;2023-03-01T06:00:20;-1.20;99.90
24436;DHT22;12616;52.470;13.436;2023-03-01T06:02:48;-1.30;1.00
24436;DHT22;12616;52.470;13.436;2023-03-01T06:05:15;-1.30;99.90
24436;DHT22;12616;52.470;13.436;2023-03-01T06:07:43;-1.50;99.90
24436;DHT22;12616;52.470;13.436;2023-03-01T06:10:12;-1.30;1.00
24436;DHT22;12616;52.470;13.436;2023-03-01T06:12:40;-1.20;1.00
24436;DHT22;12616;52.470;13.436;2023-03-01T06:15:08;-1.30;1.00
24436;DHT22;12616;52.470;13.436;2023-03-01T06:17:37;-1.20;1.00
24436;DHT22;12616;52.470;13.436;2023-03-01T06:20:07;-1.30;99.90
24436;DHT22;12616;52.470;13.436;2023-03-01T06:22:34;-1.10;35.00
24436;DHT22;12616;52.470;13.436;2023-03-01T06:25:03;-1.20;1.00
24436;DHT22;12616;52.470;13.436;2023-03-01T06:27:30;-1.20;1.00
24436;DHT22;12616;52.470;13.436;2023-03-01T06:29:57;-1.10;99.90
24436;DHT22;12616;52.470;13.436;2023-03-01T06:32:23;-1.10;1.00
24436;DHT22;12616;52.470;13.436;2023-03-01T06:34:50;-1.20;1.00
24436;DHT22;12616;52.470;13.436;2023-03-01T06:37:17;-0.90;68.90
24436;DHT22;12616;52.470;13.436;2023-03-01T06:39:44;-1.20;1.00
24436;DHT22;12616;52.470;13.436;2023-03-01T06:42:12;-1.00;99.90
24436;DHT22;12616;52.470;13.436;2023-03-01T06:44:39;-0.90;1.00
24436;DHT22;12616;52.470;13.436;2023-03-01T06:47:06;-0.90;1.00
24436;DHT22;12616;52.470;13.436;2023-03-01T06:49:32;-0.80;99.90
24436;DHT22;12616;52.470;13.436;2023-03-01T06:51:59;-0.80;1.00
24436;DHT22;12616;52.470;13.436;2023-03-01T06:54:26;-0.70;99.90
24436;DHT22;12616;52.470;13.436;2023-03-01T06:56:53;-0.80;99.90
24436;DHT22;12616;52.470;13.436;2023-03-01T06:59:21;-0.80;99.90
24436;DHT22;12616;52.470;13.436;2023-03-01T07:01:48;-0.70;1.00
24436;DHT22;12616;52.470;13.436;2023-03-01T07:04:15;-0.70;99.90
24436;DHT22;12616;52.470;13.436;2023-03-01T07:06:41;-0.60;99.90
24436;DHT22;12616;52.470;13.436;2023-03-01T07:09:08;-0.50;99.90
24436;DHT22;12616;52.470;13.436;2023-03-01T07:11:35;-0.30;99.90
24436;DHT22;12616;52.470;13.436;2023-03-01T07:14:02;-0.20;1.00
24436;DHT22;12616;52.470;13.436;2023-03-01T07:16:32;-0.20;1.00
24436;DHT22;12616;52.470;13.436;2023-03-01T07:18:59;-0.10;99.90
24436;DHT22;12616;52.470;13.436;2023-03-01T07:21:26;-0.10;99.90
24436;DHT22;12616;52.470;13.436;2023-03-01T07:23:52;-0.10;75.00
24436;DHT22;12616;52.470;13.436;2023-03-01T07:26:19;0.20;49.50
24436;DHT22;12616;52.470;13.436;2023-03-01T07:28:46;0.20;1.00
24436;DHT22;12616;52.470;13.436;2023-03-01T07:31:13;0.40;99.90
24436;DHT22;12616;52.470;13.436;2023-03-01T07:33:41;0.40;1.00
24436;DHT22;12616;52.470;13.436;2023-03-01T07:36:09;0.50;1.00
24436;DHT22;12616;52.470;13.436;2023-03-01T07:38:36;0.60;1.00
24436;DHT22;12616;52.470;13.436;2023-03-01T07:41:03;0.70;1.00
24436;DHT22;12616;52.470;13.436;2023-03-01T07:43:31;0.80;1.00
24436;DHT22;12616;52.470;13.436;2023-03-01T07:45:58;0.80;1.00
24436;DHT22;12616;52.470;13.436;2023-03-01T07:48:26;0.90;1.00
24436;DHT22;12616;52.470;13.436;2023-03-01T07:50:54;0.90;1.00
24436;DHT22;12616;52.470;13.436;2023-03-01T07:53:21;1.00;1.00
24436;DHT22;12616;52.470;13.436;2023-03-01T07:55:48;1.40;1.00
24436;DHT22;12616;52.470;13.436;2023-03-01T07:58:14;1.20;99.90
24436;DHT22;12616;52.470;13.436;2023-03-01T08:00:41;1.30;99.90
24436;DHT22;12616;52.470;13.436;2023-03-01T08:03:08;1.30;99.90
24436;DHT22;12616;52.470;13.436;2023-03-01T08:05:35;1.60;1.00
24436;DHT22;12616;52.470;13.436;2023-03-01T08:08:04;1.50;99.90
24436;DHT22;12616;52.470;13.436;2023-03-01T08:10:31;1.60;99.90
24436;DHT22;12616;52.470;13.436;2023-03-01T08:12:58;1.70;99.90
24436;DHT22;12616;52.470;13.436;2023-03-01T08:15:25;1.90;99.20
24436;DHT22;12616;52.470;13.436;2023-03-01T08:17:52;2.30;69.80
24436;DHT22;12616;52.470;13.436;2023-03-01T08:20:18;2.30;99.90
24436;DHT22;12616;52.470;13.436;2023-03-01T08:22:46;2.20;1.00
24436;DHT22;12616;52.470;13.436;2023-03-01T08:25:14;2.40;99.90
24436;DHT22;12616;52.470;13.436;2023-03-01T08:27:41;2.30;1.00
24436;DHT22;12616;52.470;13.436;2023-03-01T08:30:09;2.30;1.00
24436;DHT22;12616;52.470;13.436;2023-03-01T08:32:37;2.40;1.00
24436;DHT22;12616;52.470;13.436;2023-03-01T08:35:05;2.40;1.00
24436;DHT22;12616;52.470;13.436;2023-03-01T08:37:32;2.50;1.00
24436;DHT22;12616;52.470;13.436;2023-03-01T08:39:59;2.40;99.90
24436;DHT22;12616;52.470;13.436;2023-03-01T08:42:27;2.50;1.00
24436;DHT22;12616;52.470;13.436;2023-03-01T08:44:54;2.60;1.00
24436;DHT22;12616;52.470;13.436;2023-03-01T08:47:22;2.70;1.00
24436;DHT22;12616;52.470;13.436;2023-03-01T08:49:49;2.80;1.00
24436;DHT22;12616;52.470;13.436;2023-03-01T08:52:16;2.90;1.00
24436;DHT22;12616;52.470;13.436;2023-03-01T08:54:43;2.70;1.00
24436;DHT22;12616;52.470;13.436;2023-03-01T08:57:10;2.90;1.00
24436;DHT22;12616;52.470;13.436;2023-03-01T08:59:39;3.00;1.00
24436;DHT22;12616;52.470;13.436;2023-03-01T09:02:11;3.10;1.00
24436;DHT22;12616;52.470;13.436;2023-03-01T09:04:38;3.20;1.00
24436;DHT22;12616;52.470;13.436;2023-03-01T09:07:05;3.30;1.00
24436;DHT22;12616;52.470;13.436;2023-03-01T09:09:32;3.40;1.00
24436;DHT22;12616;52.470;13.436;2023-03-01T09:12:00;3.40;1.00
24436;DHT22;12616;52.470;13.436;2023-03-01T09:14:26;3.50;1.00
24436;DHT22;12616;52.470;13.436;2023-03-01T09:16:55;3.50;1.00
24436;DHT22;12616;52.470;13.436;2023-03-01T09:19:22;3.50;1.00
24436;DHT22;12616;52.470;13.436;2023-03-01T09:21:49;3.50;1.00
24436;DHT22;12616;52.470;13.436;2023-03-01T09:24:19;3.50;1.00
24436;DHT22;12616;52.470;13.436;2023-03-01T09:26:46;3.50;1.00
24436;DHT22;12616;52.470;13.436;2023-03-01T09:29:16;3.70;11.30
24436;DHT22;12616;52.470;13.436;2023-03-01T09:31:43;3.60;1.00
24436;DHT22;12616;52.470;13.436;2023-03-01T09:34:11;3.60;1.00
24436;DHT22;12616;52.470;13.436;2023-03-01T09:36:40;3.60;1.00
24436;DHT22;12616;52.470;13.436;2023-03-01T09:39:07;3.90;1.00
24436;DHT22;12616;52.470;13.436;2023-03-01T09:41:50;3.90;1.00
24436;DHT22;12616;52.470;13.436;2023-03-01T09:44:29;3.90;1.00
24436;DHT22;12616;52.470;13.436;2023-03-01T09:46:58;4.00;1.00
24436;DHT22;12616;52.470;13.436;2023-03-01T09:49:28;4.10;1.00
24436;DHT22;12616;52.470;13.436;2023-03-01T09:52:00;4.00;1.00
24436;DHT22;12616;52.470;13.436;2023-03-01T09:54:27;4.10;1.00
24436;DHT22;12616;52.470;13.436;2023-03-01T09:57:09;4.40;1.00
24436;DHT22;12616;52.470;13.436;2023-03-01T09:59:53;4.40;1.00
24436;DHT22;12616;52.470;13.436;2023-03-01T10:02:27;4.50;1.00
24436;DHT22;12616;52.470;13.436;2023-03-01T10:05:09;4.30;1.00
24436;DHT22;12616;52.470;13.436;2023-03-01T10:07:44;4.50;1.00
24436;DHT22;12616;52.470;13.436;2023-03-01T10:10:23;4.60;1.00
24436;DHT22;12616;52.470;13.436;2023-03-01T10:12:56;4.50;1.00
24436;DHT22;12616;52.470;13.436;2023-03-01T10:15:33;6.40;1.00
24436;DHT22;12616;52.470;13.436;2023-03-01T10:18:04;4.50;1.00
24436;DHT22;12616;52.470;13.436;2023-03-01T10:20:43;4.90;1.00
24436;DHT22;12616;52.470;13.436;2023-03-01T10:23:12;4.80;1.00
24436;DHT22;12616;52.470;13.436;2023-03-01T10:25:50;4.80;1.00
24436;DHT22;12616;52.470;13.436;2023-03-01T10:28:25;4.90;1.00
24436;DHT22;12616;52.470;13.436;2023-03-01T10:30:53;5.00;1.00
24436;DHT22;12616;52.470;13.436;2023-03-01T10:33:23;4.80;1.00
24436;DHT22;12616;52.470;13.436;2023-03-01T10:35:52;4.80;1.00
24436;DHT22;12616;52.470;13.436;2023-03-01T10:38:20;4.70;1.00
24436;DHT22;12616;52.470;13.436;2023-03-01T10:40:52;4.70;1.00
24436;DHT22;12616;52.470;13.436;2023-03-01T10:43:20;4.80;1.00
24436;DHT22;12616;52.470;13.436;2023-03-01T10:45:47;5.00;1.00
24436;DHT22;12616;52.470;13.436;2023-03-01T10:48:15;4.80;1.00
24436;DHT22;12616;52.470;13.436;2023-03-01T10:50:44;4.90;1.00
24436;DHT22;12616;52.470;13.436;2023-03-01T10:53:23;5.00;1.00
24436;DHT22;12616;52.470;13.436;2023-03-01T10:56:03;5.00;1.00
24436;DHT22;12616;52.470;13.436;2023-03-01T10:58:32;5.10;1.00
24436;DHT22;12616;52.470;13.436;2023-03-01T11:01:00;5.20;1.00
24436;DHT22;12616;52.470;13.436;2023-03-01T11:03:29;5.20;1.00
24436;DHT22;12616;52.470;13.436;2023-03-01T11:06:05;5.30;1.00
24436;DHT22;12616;52.470;13.436;2023-03-01T11:08:39;5.40;1.00
24436;DHT22;12616;52.470;13.436;2023-03-01T11:11:22;5.60;1.00
24436;DHT22;12616;52.470;13.436;2023-03-01T11:13:58;5.50;1.00
24436;DHT22;12616;52.470;13.436;2023-03-01T11:16:28;5.40;1.00
24436;DHT22;12616;52.470;13.436;2023-03-01T11:18:57;5.40;1.00
24436;DHT22;12616;52.470;13.436;2023-03-01T11:21:26;5.50;1.00
24436;DHT22;12616;52.470;13.436;2023-03-01T11:23:57;5.50;1.00
24436;DHT22;12616;52.470;13.436;2023-03-01T11:26:24;5.50;1.00
24436;DHT22;12616;52.470;13.436;2023-03-01T11:28:55;5.60;1.00
24436;DHT22;12616;52.470;13.436;2023-03-01T11:31:24;5.60;1.00
24436;DHT22;12616;52.470;13.436;2023-03-01T11:33:57;5.60;1.00
24436;DHT22;12616;52.470;13.436;2023-03-01T11:36:30;5.80;1.00
24436;DHT22;12616;52.470;13.436;2023-03-01T11:39:05;5.70;1.00
24436;DHT22;12616;52.470;13.436;2023-03-01T11:41:40;5.30;1.00
24436;DHT22;12616;52.470;13.436;2023-03-01T11:44:16;5.70;99.90
24436;DHT22;12616;52.470;13.436;2023-03-01T11:46:51;5.80;99.90
24436;DHT22;12616;52.470;13.436;2023-03-01T11:52:28;6.50;1.00
24436;DHT22;12616;52.470;13.436;2023-03-01T11:55:13;6.10;1.00
24436;DHT22;12616;52.470;13.436;2023-03-01T11:58:01;6.10;99.90
24436;DHT22;12616;52.470;13.436;2023-03-01T12:00:53;6.00;1.00
24436;DHT22;12616;52.470;13.436;2023-03-01T12:03:31;5.90;99.90
24436;DHT22;12616;52.470;13.436;2023-03-01T12:09:21;6.00;99.90
24436;DHT22;12616;52.470;13.436;2023-03-01T12:12:03;6.00;99.90
24436;DHT22;12616;52.470;13.436;2023-03-01T12:14:55;6.10;99.90
24436;DHT22;12616;52.470;13.436;2023-03-01T12:17:44;6.20;99.90
24436;DHT22;12616;52.470;13.436;2023-03-01T12:20:20;6.20;99.90
24436;DHT22;12616;52.470;13.436;2023-03-01T12:23:02;6.30;99.90
24436;DHT22;12616;52.470;13.436;2023-03-01T12:25:35;6.10;1.00
24436;DHT22;12616;52.470;13.436;2023-03-01T12:28:19;6.30;99.90
24436;DHT22;12616;52.470;13.436;2023-03-01T12:31:06;6.40;1.00
24436;DHT22;12616;52.470;13.436;2023-03-01T12:33:43;6.50;99.90
24436;DHT22;12616;52.470;13.436;2023-03-01T12:36:31;6.50;99.90
24436;DHT22;12616;52.470;13.436;2023-03-01T12:39:13;6.40;99.90
24436;DHT22;12616;52.470;13.436;2023-03-01T12:41:47;6.70;1.00
24436;DHT22;12616;52.470;13.436;2023-03-01T12:44:24;6.60;99.90
24436;DHT22;12616;52.470;13.436;2023-03-01T12:47:07;6.50;99.90
24436;DHT22;12616;52.470;13.436;2023-03-01T12:49:40;6.60;99.90
24436;DHT22;12616;52.470;13.436;2023-03-01T12:52:12;6.90;1.00
24436;DHT22;12616;52.470;13.436;2023-03-01T12:54:40;7.10;1.00
24436;DHT22;12616;52.470;13.436;2023-03-01T12:57:14;6.70;99.90
24436;DHT22;12616;52.470;13.436;2023-03-01T12:59:51;6.70;99.90
24436;DHT22;12616;52.470;13.436;2023-03-01T13:02:25;6.60;99.90
24436;DHT22;12616;52.470;13.436;2023-03-01T13:05:07;6.50;99.90
24436;DHT22;12616;52.470;13.436;2023-03-01T13:07:46;6.40;1.00
24436;DHT22;12616;52.470;13.436;2023-03-01T13:10:21;6.60;99.90
24436;DHT22;12616;52.470;13.436;2023-03-01T13:13:01;6.70;99.90
24436;DHT22;12616;52.470;13.436;2023-03-01T13:15:35;6.70;99.90
24436;DHT22;12616;52.470;13.436;2023-03-01T13:18:04;6.60;99.90
24436;DHT22;12616;52.470;13.436;2023-03-01T13:20:34;6.50;1.00
24436;DHT22;12616;52.470;13.436;2023-03-01T13:23:07;6.60;99.90
24436;DHT22;12616;52.470;13.436;2023-03-01T13:25:35;6.60;99.90
24436;DHT22;12616;52.470;13.436;2023-03-01T13:28:39;6.60;99.90
24436;DHT22;12616;52.470;13.436;2023-03-01T13:31:07;6.80;1.00
24436;DHT22;12616;52.470;13.436;2023-03-01T13:33:43;6.60;99.90
24436;DHT22;12616;52.470;13.436;2023-03-01T13:36:13;6.60;99.90
24436;DHT22;12616;52.470;13.436;2023-03-01T13:39:02;6.60;99.90
24436;DHT22;12616;52.470;13.436;2023-03-01T13:41:50;6.80;1.00
24436;DHT22;12616;52.470;13.436;2023-03-01T13:44:24;6.70;99.90
24436;DHT22;12616;52.470;13.436;2023-03-01T13:46:53;6.80;99.90
24436;DHT22;12616;52.470;13.436;2023-03-01T13:49:25;6.70;99.90
24436;DHT22;12616;52.470;13.436;2023-03-01T13:51:53;6.70;99.90
24436;DHT22;12616;52.470;13.436;2023-03-01T13:54:29;6.70;99.90
24436;DHT22;12616;52.470;13.436;2023-03-01T13:56:58;6.70;99.90
24436;DHT22;12616;52.470;13.436;2023-03-01T13:59:27;6.70;99.90
24436;DHT22;12616;52.470;13.436;2023-03-01T14:01:56;6.60;99.90
24436;DHT22;12616;52.470;13.436;2023-03-01T14:04:25;6.70;99.90
24436;DHT22;12616;52.470;13.436;2023-03-01T14:07:09;6.80;1.00
24436;DHT22;12616;52.470;13.436;2023-03-01T14:09:39;6.70;99.90
24436;DHT22;12616;52.470;13.436;2023-03-01T14:12:18;6.70;99.90
24436;DHT22;12616;52.470;13.436;2023-03-01T14:14:52;6.70;99.90
24436;DHT22;12616;52.470;13.436;2023-03-01T14:17:44;6.70;99.90
24436;DHT22;12616;52.470;13.436;2023-03-01T14:20:19;6.70;99.90
24436;DHT22;12616;52.470;13.436;2023-03-01T14:22:47;6.60;1.00
24436;DHT22;12616;52.470;13.436;2023-03-01T14:25:21;6.70;99.90
24436;DHT22;12616;52.470;13.436;2023-03-01T14:27:57;6.70;99.90
24436;DHT22;12616;52.470;13.436;2023-03-01T14:30:27;6.80;99.90
24436;DHT22;12616;52.470;13.436;2023-03-01T14:32:58;7.20;1.00
24436;DHT22;12616;52.470;13.436;2023-03-01T14:35:27;6.90;99.90
24436;DHT22;12616;52.470;13.436;2023-03-01T14:37:54;6.90;99.90
24436;DHT22;12616;52.470;13.436;2023-03-01T14:40:26;6.90;99.90
24436;DHT22;12616;52.470;13.436;2023-03-01T14:42:56;7.00;99.90
24436;DHT22;12616;52.470;13.436;2023-03-01T14:45:27;6.90;1.00
24436;DHT22;12616;52.470;13.436;2023-03-01T14:47:54;7.00;99.90
24436;DHT22;12616;52.470;13.436;2023-03-01T14:50:25;6.90;99.90
24436;DHT22;12616;52.470;13.436;2023-03-01T14:52:56;7.10;99.90
24436;DHT22;12616;52.470;13.436;2023-03-01T14:55:29;7.10;99.90
24436;DHT22;12616;52.470;13.436;2023-03-01T14:57:57;7.00;99.90
24436;DHT22;12616;52.470;13.436;2023-03-01T15:00:27;6.90;99.90
24436;DHT22;12616;52.470;13.436;2023-03-01T15:02:56;6.20;99.90
24436;DHT22;12616;52.470;13.436;2023-03-01T15:05:27;6.90;99.90
24436;DHT22;12616;52.470;13.436;2023-03-01T15:07:57;6.80;99.90
24436;DHT22;12616;52.470;13.436;2023-03-01T15:10:26;6.50;1.00
24436;DHT22;12616;52.470;13.436;2023-03-01T15:12:53;6.70;99.90
24436;DHT22;12616;52.470;13.436;2023-03-01T15:18:13;6.70;1.00
24436;DHT22;12616;52.470;13.436;2023-03-01T15:20:41;6.70;99.90
24436;DHT22;12616;52.470;13.436;2023-03-01T15:23:19;6.70;99.90
24436;DHT22;12616;52.470;13.436;2023-03-01T15:25:46;6.80;99.90
24436;DHT22;12616;52.470;13.436;2023-03-01T15:28:23;6.80;99.90
24436;DHT22;12616;52.470;13.436;2023-03-01T15:30:54;6.70;99.90
24436;DHT22;12616;52.470;13.436;2023-03-01T15:33:32;6.70;99.90
24436;DHT22;12616;52.470;13.436;2023-03-01T15:36:00;6.70;99.90
24436;DHT22;12616;52.470;13.436;2023-03-01T15:38:33;6.80;99.90
24436;DHT22;12616;52.470;13.436;2023-03-01T15:41:02;7.10;99.90
24436;DHT22;12616;52.470;13.436;2023-03-01T15:43:46;6.70;99.90
24436;DHT22;12616;52.470;13.436;2023-03-01T15:46:17;6.60;99.90
24436;DHT22;12616;52.470;13.436;2023-03-01T15:48:47;6.50;99.90
24436;DHT22;12616;52.470;13.436;2023-03-01T15:51:16;6.80;99.90
24436;DHT22;12616;52.470;13.436;2023-03-01T15:53:48;6.40;99.90
24436;DHT22;12616;52.470;13.436;2023-03-01T15:56:16;6.40;99.90
24436;DHT22;12616;52.470;13.436;2023-03-01T15:58:42;6.60;1.00
24436;DHT22;12616;52.470;13.436;2023-03-01T16:01:12;6.30;99.90
24436;DHT22;12616;52.470;13.436;2023-03-01T16:06:09;6.20;99.90